Time;durP1;ratioP1;P1;durP2;ratioP2;P2;SDS_P1;SDS_P2;PMS_P1;PMS_P2;Temp;Humidity;BMP_temperature;BMP_pressure;BME280_temperature;BME280_humidity;BME280_pressure;Samples;Min_cycle;Max_cycle;Signal;HPM_P1;HPM_P2
2021/01/23 00:00:49;;;;;;;1.88;1.77;;;5.80;78.60;;;;;;5018059;28;20033;-68
2021/01/23 00:03:16;;;;;;;1.50;1.40;;;5.80;78.30;;;;;;5017607;28;20516;-69
2021/01/23 00:05:42;;;;;;;1.50;1.40;;;5.70;78.10;;;;;;5017712;28;20436;-69
2021/01/23 00:08:08;;;;;;;1.50;1.40;;;5.60;77.80;;;;;;5017159;28;20501;-70
2021/01/23 00:10:33;;;;;;;1.65;1.55;;;5.50;77.70;;;;;;5032995;28;20030;-68
2021/01/23 00:12:59;;;;;;;1.80;1.70;;;5.40;77.90;;;;;;5017865;28;20496;-70
2021/01/23 00:15:24;;;;;;;2.20;1.40;;;5.30;78.00;;;;;;5017774;28;20030;-68
2021/01/23 00:17:50;;;;;;;1.40;1.30;;;5.20;78.10;;;;;;5018130;28;20065;-69
2021/01/23 00:20:16;;;;;;;1.00;0.90;;;5.00;77.90;;;;;;5017648;28;20026;-68
2021/01/23 00:22:41;;;;;;;0.63;0.63;;;4.90;77.80;;;;;;5016774;28;20083;-68
2021/01/23 00:25:07;;;;;;;0.50;0.50;;;4.90;78.00;;;;;;5016442;28;20400;-67
2021/01/23 00:27:33;;;;;;;0.70;0.70;;;4.80;78.00;;;;;;5016631;28;20054;-68
2021/01/23 00:29:59;;;;;;;1.13;0.70;;;4.70;78.30;;;;;;5015709;28;20109;-66
2021/01/23 00:32:26;;;;;;;0.60;0.60;;;4.60;78.50;;;;;;5012467;28;20038;-67
2021/01/23 00:34:51;;;;;;;1.13;0.60;;;4.50;78.90;;;;;;5010010;28;20600;-67
2021/01/23 00:37:17;;;;;;;0.60;0.60;;;4.40;79.20;;;;;;5016286;28;20116;-67
2021/01/23 00:39:42;;;;;;;0.65;0.60;;;4.40;79.20;;;;;;5017285;28;20041;-67
2021/01/23 00:42:08;;;;;;;0.77;0.77;;;4.40;79.70;;;;;;5016870;28;20555;-67
2021/01/23 00:44:34;;;;;;;0.50;0.50;;;4.30;79.70;;;;;;5016405;28;20547;-68
2021/01/23 00:47:00;;;;;;;0.35;0.32;;;4.20;79.80;;;;;;5016858;28;20041;-66
2021/01/23 00:49:25;;;;;;;0.32;0.30;;;4.20;79.90;;;;;;5019443;28;20030;-67
2021/01/23 00:51:51;;;;;;;0.30;0.30;;;4.20;80.00;;;;;;5021144;28;20033;-68
2021/01/23 00:54:16;;;;;;;0.15;0.10;;;4.20;79.90;;;;;;5020728;28;20033;-66
2021/01/23 00:56:42;;;;;;;0.10;0.10;;;4.10;79.90;;;;;;5020629;28;20584;-66
2021/01/23 00:59:08;;;;;;;0.10;0.10;;;4.10;80.70;;;;;;5020346;28;20219;-66
2021/01/23 01:01:33;;;;;;;0.20;0.20;;;4.10;80.20;;;;;;5021331;28;20922;-65
2021/01/23 01:03:59;;;;;;;0.20;0.10;;;4.00;80.00;;;;;;5022517;28;20034;-68
2021/01/23 01:06:24;;;;;;;0.00;0.00;;;4.00;79.90;;;;;;5021558;28;20030;-67
2021/01/23 01:08:51;;;;;;;0.00;0.00;;;4.00;80.00;;;;;;5021155;28;20087;-65
2021/01/23 01:11:16;;;;;;;0.13;0.10;;;4.00;80.00;;;;;;5008459;28;20359;-69
2021/01/23 01:13:42;;;;;;;0.03;0.03;;;3.90;80.20;;;;;;5002478;28;20113;-66
2021/01/23 01:16:07;;;;;;;0.10;0.00;;;3.90;80.00;;;;;;5015761;28;20040;-68
2021/01/23 01:18:33;;;;;;;0.10;0.00;;;3.80;80.00;;;;;;5002394;28;20030;-68
2021/01/23 01:20:59;;;;;;;0.10;0.00;;;3.80;79.90;;;;;;5017420;28;20048;-68
2021/01/23 01:23:24;;;;;;;0.00;0.00;;;3.80;80.30;;;;;;5017544;28;20048;-67
2021/01/23 01:25:50;;;;;;;0.05;0.05;;;3.70;80.20;;;;;;5020042;28;20087;-68
2021/01/23 01:28:15;;;;;;;0.08;0.08;;;3.70;80.10;;;;;;5019773;28;20037;-68
2021/01/23 01:30:41;;;;;;;0.13;0.03;;;3.70;80.20;;;;;;5019128;28;20320;-68
2021/01/23 01:33:09;;;;;;;0.10;0.08;;;3.60;80.40;;;;;;5050448;28;20045;-68
2021/01/23 01:35:35;;;;;;;1.00;0.10;;;3.60;80.40;;;;;;5020229;28;20475;-68
2021/01/23 01:38:01;;;;;;;0.47;0.03;;;3.60;81.10;;;;;;5015067;28;20697;-68
2021/01/23 01:40:26;;;;;;;0.00;0.00;;;3.60;80.50;;;;;;5015239;28;20034;-68
2021/01/23 01:42:52;;;;;;;0.00;0.00;;;3.60;80.40;;;;;;5018281;28;20076;-68
2021/01/23 01:45:18;;;;;;;0.10;0.10;;;3.60;80.60;;;;;;5019103;28;20029;-68
2021/01/23 01:47:43;;;;;;;0.00;0.00;;;3.60;80.60;;;;;;5015847;28;20394;-68
2021/01/23 01:50:12;;;;;;;0.08;0.00;;;3.50;80.60;;;;;;5028570;28;20582;-68
2021/01/23 01:52:38;;;;;;;0.00;0.00;;;3.50;80.60;;;;;;5017109;28;20048;-68
2021/01/23 01:55:05;;;;;;;0.00;0.00;;;3.50;80.70;;;;;;5016921;28;20062;-68
2021/01/23 01:57:30;;;;;;;0.10;0.10;;;3.50;80.70;;;;;;5016367;28;20033;-67
2021/01/23 01:59:56;;;;;;;0.10;0.10;;;3.50;80.70;;;;;;5015681;28;20030;-67
2021/01/23 02:03:04;;;;;;;0.10;0.10;;;3.50;80.90;;;;;;5013741;28;20112;-68
2021/01/23 02:05:58;;;;;;;0.10;0.10;;;3.50;81.80;;;;;;5014596;28;20505;-68
2021/01/23 02:09:06;;;;;;;0.10;0.05;;;3.50;81.80;;;;;;5019017;28;20036;-68
2021/01/23 02:11:59;;;;;;;0.10;0.10;;;3.40;81.60;;;;;;5017732;28;20944;-68
2021/01/23 02:14:35;;;;;;;0.00;0.00;;;3.40;81.10;;;;;;5019676;28;20038;-68
2021/01/23 02:17:07;;;;;;;0.10;0.00;;;3.40;81.10;;;;;;5018771;28;20037;-68
2021/01/23 02:19:48;;;;;;;0.05;0.05;;;3.40;80.80;;;;;;5047698;28;20038;-68
2021/01/23 02:22:56;;;;;;;0.00;0.00;;;3.40;81.10;;;;;;5016782;28;20509;-68
2021/01/23 02:25:23;;;;;;;0.00;0.00;;;3.40;81.80;;;;;;5017305;28;20536;-68
2021/01/23 02:28:06;;;;;;;0.08;0.00;;;3.40;81.10;;;;;;5003794;28;20030;-68
2021/01/23 02:30:44;;;;;;;1.08;0.00;;;3.40;81.80;;;;;;5002268;28;20042;-66
2021/01/23 02:33:12;;;;;;;0.00;0.00;;;3.40;81.60;;;;;;4996782;28;20030;-66
2021/01/23 02:35:38;;;;;;;0.00;0.00;;;3.40;81.10;;;;;;4992405;28;20036;-67
2021/01/23 02:38:06;;;;;;;0.00;0.00;;;3.40;81.30;;;;;;5011143;28;20034;-66
2021/01/23 02:40:32;;;;;;;0.25;0.10;;;3.40;81.60;;;;;;4973965;28;602047;-68
2021/01/23 02:42:58;;;;;;;0.30;0.00;;;3.40;81.80;;;;;;4997174;28;20108;-68
2021/01/23 02:45:23;;;;;;;0.03;0.03;;;3.30;81.60;;;;;;4998324;28;20105;-67
2021/01/23 02:47:49;;;;;;;0.10;0.00;;;3.30;81.70;;;;;;5030421;28;20041;-68
2021/01/23 02:50:15;;;;;;;0.08;0.00;;;3.30;81.70;;;;;;4992400;28;20026;-67
2021/01/23 02:53:02;;;;;;;0.00;0.00;;;3.30;81.60;;;;;;4998782;28;20085;-68
2021/01/23 02:55:32;;;;;;;0.00;0.00;;;3.30;82.00;;;;;;4997740;28;20117;-68
2021/01/23 02:58:02;;;;;;;0.10;0.10;;;3.30;81.70;;;;;;5031115;28;20076;-68
2021/01/23 03:00:31;;;;;;;0.10;0.10;;;3.30;82.00;;;;;;4998483;28;20532;-67
2021/01/23 03:02:58;;;;;;;0.20;0.17;;;3.30;81.80;;;;;;4995952;28;20046;-68
2021/01/23 03:05:26;;;;;;;0.20;0.20;;;3.30;81.70;;;;;;4995852;28;20038;-68
2021/01/23 03:07:53;;;;;;;0.20;0.20;;;3.40;81.80;;;;;;4996954;28;20034;-69
2021/01/23 03:10:37;;;;;;;0.20;0.20;;;3.40;82.10;;;;;;4997927;28;20037;-68
2021/01/23 03:13:04;;;;;;;0.70;0.20;;;3.40;82.50;;;;;;4996863;28;21141;-70
2021/01/23 03:15:30;;;;;;;0.52;0.20;;;3.40;82.00;;;;;;4998173;28;20034;-68
2021/01/23 03:17:56;;;;;;;0.10;0.10;;;3.40;81.80;;;;;;4997963;28;20034;-67
2021/01/23 03:20:22;;;;;;;0.20;0.20;;;3.40;81.80;;;;;;4995507;28;20081;-69
2021/01/23 03:22:48;;;;;;;0.22;0.22;;;3.40;81.80;;;;;;4999709;28;20033;-70
2021/01/23 03:25:14;;;;;;;0.30;0.30;;;3.40;81.70;;;;;;4996234;28;20041;-69
2021/01/23 03:27:40;;;;;;;0.20;0.20;;;3.40;81.50;;;;;;4996187;28;20465;-71
2021/01/23 03:30:06;;;;;;;0.82;0.50;;;3.40;81.60;;;;;;4995277;28;20029;-68
2021/01/23 03:32:32;;;;;;;1.00;0.60;;;3.40;81.80;;;;;;4996744;28;20117;-70
2021/01/23 03:34:57;;;;;;;0.68;0.50;;;3.40;81.80;;;;;;4994400;28;20770;-68
2021/01/23 03:37:26;;;;;;;0.50;0.40;;;3.40;81.80;;;;;;4996913;28;20076;-69
2021/01/23 03:39:52;;;;;;;1.67;0.50;;;3.40;81.80;;;;;;4999849;28;20058;-69
2021/01/23 03:42:18;;;;;;;0.30;0.30;;;3.30;81.60;;;;;;4995077;28;20068;-68
2021/01/23 03:44:44;;;;;;;0.15;0.15;;;3.40;81.80;;;;;;4995791;28;20472;-69
2021/01/23 03:47:09;;;;;;;0.10;0.10;;;3.30;81.80;;;;;;4995961;28;20131;-69
2021/01/23 03:49:35;;;;;;;0.20;0.20;;;3.30;81.70;;;;;;4998068;28;20436;-68
2021/01/23 03:52:01;;;;;;;0.17;0.17;;;3.30;81.80;;;;;;5028827;28;20038;-71
2021/01/23 03:54:27;;;;;;;0.10;0.10;;;3.30;82.10;;;;;;4995505;28;20034;-70
2021/01/23 03:56:53;;;;;;;0.10;0.10;;;3.30;81.80;;;;;;4996920;28;20096;-72
2021/01/23 03:59:18;;;;;;;0.20;0.10;;;3.30;81.70;;;;;;4997284;28;20551;-69
2021/01/23 04:01:44;;;;;;;0.10;0.10;;;3.30;81.90;;;;;;4996618;28;20038;-69
2021/01/23 04:04:09;;;;;;;0.50;0.15;;;3.30;81.80;;;;;;4995100;28;20405;-70
2021/01/23 04:06:35;;;;;;;0.52;0.13;;;3.30;81.60;;;;;;4996773;28;20034;-69
2021/01/23 04:09:01;;;;;;;0.20;0.20;;;3.30;81.80;;;;;;4996535;28;20062;-68
2021/01/23 04:11:26;;;;;;;0.20;0.20;;;3.30;81.40;;;;;;4994340;28;20073;-68
2021/01/23 04:13:52;;;;;;;0.28;0.20;;;3.30;81.40;;;;;;4997191;28;20596;-68
2021/01/23 04:16:17;;;;;;;0.20;0.20;;;3.30;81.40;;;;;;4995026;28;20528;-69
2021/01/23 04:18:43;;;;;;;0.77;0.20;;;3.40;81.60;;;;;;4995040;28;20053;-69
2021/01/23 04:21:08;;;;;;;35.45;17.35;;;3.40;81.60;;;;;;4994462;28;20490;-69
2021/01/23 04:23:34;;;;;;;5.25;3.05;;;3.40;81.30;;;;;;4996948;28;20033;-69
2021/01/23 04:26:00;;;;;;;24.55;10.75;;;3.30;81.30;;;;;;4996783;28;20040;-69
2021/01/23 04:28:26;;;;;;;1.80;1.42;;;3.30;81.20;;;;;;4995427;28;20047;-69
2021/01/23 04:30:51;;;;;;;1.33;1.23;;;3.40;81.30;;;;;;4994572;28;20048;-70
2021/01/23 04:33:17;;;;;;;0.30;0.30;;;3.40;81.30;;;;;;4995044;28;20048;-68
2021/01/23 04:35:43;;;;;;;1.25;0.70;;;3.30;81.00;;;;;;4995174;28;20153;-69
2021/01/23 04:38:08;;;;;;;0.95;0.95;;;3.40;81.30;;;;;;4996776;28;20034;-68
2021/01/23 04:40:35;;;;;;;11.48;6.07;;;3.40;81.30;;;;;;4993927;28;20081;-70
2021/01/23 04:43:01;;;;;;;1.23;1.00;;;3.40;81.10;;;;;;4997432;28;20038;-70
2021/01/23 04:45:27;;;;;;;4.78;3.35;;;3.30;80.90;;;;;;4993309;28;20054;-69
2021/01/23 04:47:55;;;;;;;1.80;1.70;;;3.40;80.90;;;;;;4996889;28;20077;-68
2021/01/23 04:50:21;;;;;;;3.05;2.65;;;3.40;81.20;;;;;;4995346;28;20039;-68
2021/01/23 04:52:46;;;;;;;1.55;1.45;;;3.40;80.90;;;;;;4996468;28;20038;-69
2021/01/23 04:55:12;;;;;;;1.50;1.40;;;3.40;80.90;;;;;;4997969;28;20026;-69
2021/01/23 04:57:41;;;;;;;2.63;1.77;;;3.40;80.70;;;;;;4995807;28;20490;-69
2021/01/23 05:00:07;;;;;;;2.08;1.63;;;3.40;80.90;;;;;;4997676;28;20428;-69
2021/01/23 05:02:33;;;;;;;3.60;2.67;;;3.40;80.90;;;;;;4995320;28;20046;-69
2021/01/23 05:05:00;;;;;;;0.70;0.70;;;3.40;80.90;;;;;;4995893;28;20497;-69
2021/01/23 05:07:46;;;;;;;0.47;0.47;;;3.40;81.00;;;;;;4996292;28;20042;-67
2021/01/23 05:10:38;;;;;;;0.47;0.47;;;3.40;81.60;;;;;;4995937;28;20026;-68
2021/01/23 05:13:13;;;;;;;0.30;0.30;;;3.40;81.50;;;;;;4994531;28;20409;-70
2021/01/23 05:15:42;;;;;;;0.50;0.32;;;3.30;81.20;;;;;;4996059;28;20545;-68
2021/01/23 05:18:09;;;;;;;0.30;0.30;;;3.40;80.90;;;;;;5026769;28;20054;-68
2021/01/23 05:20:36;;;;;;;0.40;0.40;;;3.40;81.00;;;;;;4996864;28;20109;-69
2021/01/23 05:23:26;;;;;;;0.50;0.50;;;3.40;80.90;;;;;;4995048;28;20048;-67
2021/01/23 05:26:00;;;;;;;0.45;0.45;;;3.40;81.40;;;;;;4996847;28;20037;-68
2021/01/23 05:28:32;;;;;;;0.43;0.30;;;3.40;80.90;;;;;;4996067;28;20532;-66
2021/01/23 05:30:59;;;;;;;0.40;0.40;;;3.40;80.90;;;;;;4995114;28;20100;-67
2021/01/23 05:33:26;;;;;;;0.50;0.50;;;3.40;80.70;;;;;;4997492;28;20041;-68
2021/01/23 05:36:00;;;;;;;0.40;0.40;;;3.40;80.60;;;;;;5002209;28;20508;-68
2021/01/23 05:38:31;;;;;;;0.95;0.95;;;3.40;80.70;;;;;;4997709;28;20471;-67
2021/01/23 05:41:09;;;;;;;2.13;1.80;;;3.40;80.60;;;;;;4999433;28;20034;-67
2021/01/23 05:43:47;;;;;;;0.80;0.80;;;3.40;80.70;;;;;;4999163;28;20045;-68
2021/01/23 05:46:19;;;;;;;0.73;0.73;;;3.40;80.70;;;;;;4999690;28;20093;-67
2021/01/23 05:48:48;;;;;;;0.50;0.50;;;3.40;80.70;;;;;;4996995;28;20042;-68
2021/01/23 05:51:16;;;;;;;0.50;0.50;;;3.40;80.80;;;;;;5006034;28;20087;-68
2021/01/23 05:53:43;;;;;;;0.60;0.60;;;3.40;80.50;;;;;;5008387;28;20041;-67
2021/01/23 05:56:09;;;;;;;0.57;0.50;;;3.40;80.60;;;;;;4996074;28;20455;-67
2021/01/23 05:58:37;;;;;;;0.70;0.70;;;3.40;80.50;;;;;;4999690;28;20045;-68
2021/01/23 06:01:05;;;;;;;0.60;0.60;;;3.40;80.50;;;;;;5027371;28;20057;-68
2021/01/23 06:03:37;;;;;;;0.60;0.60;;;3.40;80.50;;;;;;4997119;28;20570;-68
2021/01/23 06:06:03;;;;;;;0.50;0.50;;;3.40;80.60;;;;;;4998099;28;20525;-69
2021/01/23 06:08:49;;;;;;;0.60;0.60;;;3.40;80.40;;;;;;4998366;28;20095;-68
2021/01/23 06:11:17;;;;;;;0.50;0.40;;;3.40;80.60;;;;;;4998305;28;20085;-68
2021/01/23 06:13:45;;;;;;;0.50;0.50;;;3.40;80.20;;;;;;4998449;28;20076;-68
2021/01/23 06:16:32;;;;;;;0.60;0.60;;;3.40;80.10;;;;;;4999079;28;20104;-67
2021/01/23 06:19:01;;;;;;;0.70;0.70;;;3.40;80.50;;;;;;5049378;28;20042;-68
2021/01/23 06:21:44;;;;;;;0.50;0.50;;;3.40;80.00;;;;;;5018106;28;20054;-69
2021/01/23 06:24:11;;;;;;;0.50;0.50;;;3.50;80.30;;;;;;5018394;28;20037;-68
2021/01/23 06:26:55;;;;;;;1.20;1.10;;;3.40;79.90;;;;;;5011736;28;20037;-68
2021/01/23 06:29:33;;;;;;;5.68;3.08;;;3.40;80.20;;;;;;5013980;28;20108;-70
2021/01/23 06:32:14;;;;;;;3.58;2.55;;;3.40;80.00;;;;;;5013730;28;20034;-68
2021/01/23 06:34:46;;;;;;;3.08;1.20;;;3.40;80.10;;;;;;5013760;28;20040;-69
2021/01/23 06:37:23;;;;;;;1.50;1.40;;;3.40;79.90;;;;;;5016412;28;20036;-68
2021/01/23 06:40:34;;;;;;;1.58;1.45;;;3.50;79.90;;;;;;5015841;28;20045;-71
2021/01/23 06:43:05;;;;;;;1.70;1.60;;;3.40;79.90;;;;;;5035253;28;20416;-67
2021/01/23 06:45:34;;;;;;;2.25;2.08;;;3.40;79.70;;;;;;5018547;28;20044;-68
2021/01/23 06:48:00;;;;;;;2.30;2.10;;;3.40;79.70;;;;;;5016801;28;20040;-68
2021/01/23 06:50:38;;;;;;;2.83;2.63;;;3.40;79.60;;;;;;5050665;28;20030;-68
2021/01/23 06:53:23;;;;;;;2.60;2.40;;;3.40;79.70;;;;;;5019082;28;20029;-68
2021/01/23 06:55:49;;;;;;;3.85;3.55;;;3.40;79.50;;;;;;5019544;28;20048;-67
2021/01/23 06:58:21;;;;;;;2.70;2.50;;;3.40;79.50;;;;;;5015683;28;20025;-68
2021/01/23 07:00:49;;;;;;;2.72;2.53;;;3.40;79.50;;;;;;5015623;28;20099;-67
2021/01/23 07:03:16;;;;;;;2.53;2.33;;;3.40;79.50;;;;;;5010167;28;20054;-68
2021/01/23 07:06:02;;;;;;;2.67;2.47;;;3.40;79.40;;;;;;5012298;28;20142;-66
2021/01/23 07:08:31;;;;;;;2.55;2.35;;;3.40;79.80;;;;;;5015217;28;20422;-68
2021/01/23 07:11:06;;;;;;;2.65;2.45;;;3.40;79.50;;;;;;5016415;28;20038;-68
2021/01/23 07:13:32;;;;;;;2.97;2.78;;;3.40;79.70;;;;;;5016248;28;20030;-69
2021/01/23 07:15:58;;;;;;;3.28;2.97;;;3.40;79.50;;;;;;5017401;28;20044;-69
2021/01/23 07:18:25;;;;;;;3.42;3.13;;;3.40;79.30;;;;;;5015516;28;20038;-69
2021/01/23 07:20:50;;;;;;;3.70;3.30;;;3.40;79.40;;;;;;5011099;28;20042;-67
2021/01/23 07:23:17;;;;;;;3.20;2.90;;;3.40;79.40;;;;;;5016453;28;20029;-68
2021/01/23 07:25:43;;;;;;;3.38;3.08;;;3.40;79.50;;;;;;5016154;28;20037;-68
2021/01/23 07:28:09;;;;;;;3.13;2.83;;;3.50;79.40;;;;;;5016384;28;20413;-68
2021/01/23 07:30:34;;;;;;;3.10;2.85;;;3.40;79.30;;;;;;5014388;28;20041;-68
2021/01/23 07:33:00;;;;;;;3.65;3.35;;;3.40;79.30;;;;;;5017340;28;20160;-70
2021/01/23 07:35:36;;;;;;;3.30;3.00;;;3.40;79.40;;;;;;5012767;28;20969;-68
2021/01/23 07:38:03;;;;;;;4.55;3.40;;;3.40;79.50;;;;;;5014857;28;20075;-68
2021/01/23 07:40:31;;;;;;;4.68;4.10;;;3.40;79.40;;;;;;5015839;28;20038;-69
2021/01/23 07:42:59;;;;;;;3.50;3.20;;;3.40;79.30;;;;;;5014514;28;20429;-68
2021/01/23 07:45:25;;;;;;;4.10;3.53;;;3.40;79.30;;;;;;5014191;28;20498;-69
2021/01/23 07:48:02;;;;;;;3.63;3.17;;;3.40;79.40;;;;;;5017617;28;20037;-68
2021/01/23 07:50:38;;;;;;;4.00;3.58;;;3.40;79.30;;;;;;5016528;28;20655;-68
2021/01/23 07:53:13;;;;;;;4.00;3.60;;;3.40;79.40;;;;;;5016481;28;20034;-68
2021/01/23 07:55:38;;;;;;;4.72;3.55;;;3.50;79.50;;;;;;5006141;28;20061;-68
2021/01/23 07:58:08;;;;;;;5.65;3.83;;;3.50;79.30;;;;;;4995277;28;20062;-67
2021/01/23 08:00:34;;;;;;;4.15;3.47;;;3.40;79.30;;;;;;5011899;28;20037;-69
2021/01/23 08:03:00;;;;;;;3.90;3.50;;;3.50;79.30;;;;;;4997197;28;20038;-68
2021/01/23 08:05:49;;;;;;;4.40;3.90;;;3.50;79.20;;;;;;4996570;28;20042;-69
2021/01/23 08:08:35;;;;;;;5.22;4.32;;;3.50;79.60;;;;;;4996544;28;20065;-68
2021/01/23 08:11:02;;;;;;;44.60;16.00;;;3.50;79.60;;;;;;5013179;28;20123;-68
2021/01/23 08:13:30;;;;;;;47.97;19.02;;;3.50;80.20;;;;;;5047890;28;20057;-68
2021/01/23 08:16:12;;;;;;;12.32;7.38;;;3.60;79.90;;;;;;5014144;28;20042;-68
2021/01/23 08:18:38;;;;;;;6.97;5.25;;;3.60;79.60;;;;;;5015745;28;20033;-68
2021/01/23 08:21:24;;;;;;;5.32;4.65;;;3.60;79.20;;;;;;5015508;28;20056;-68
2021/01/23 08:23:50;;;;;;;8.52;5.57;;;3.60;79.60;;;;;;5018288;28;20044;-68
2021/01/23 08:26:18;;;;;;;5.45;4.82;;;3.70;79.30;;;;;;5013266;28;20037;-69
2021/01/23 08:28:46;;;;;;;6.57;4.88;;;3.70;79.30;;;;;;5011860;28;20033;-70
2021/01/23 08:31:19;;;;;;;5.10;4.20;;;3.70;79.20;;;;;;5017100;28;20059;-69
2021/01/23 08:33:48;;;;;;;8.68;6.75;;;3.70;79.10;;;;;;5014049;28;20759;-68
2021/01/23 08:36:14;;;;;;;11.75;8.20;;;3.70;79.00;;;;;;5048913;28;20038;-68
2021/01/23 08:38:40;;;;;;;10.18;6.53;;;3.80;79.10;;;;;;5013674;28;20088;-70
2021/01/23 08:41:06;;;;;;;6.18;5.57;;;3.80;79.10;;;;;;5016263;28;20562;-68
2021/01/23 08:43:31;;;;;;;5.85;4.78;;;3.80;79.00;;;;;;5016254;28;20034;-68
2021/01/23 08:45:57;;;;;;;8.23;4.75;;;3.80;79.00;;;;;;5015008;28;20037;-68
2021/01/23 08:48:23;;;;;;;5.38;4.40;;;3.80;78.90;;;;;;5015807;28;20243;-68
2021/01/23 08:50:49;;;;;;;5.85;4.72;;;3.90;79.00;;;;;;5014995;28;20045;-69
2021/01/23 08:53:14;;;;;;;5.13;4.43;;;3.90;79.00;;;;;;5015118;28;20053;-70
2021/01/23 08:55:40;;;;;;;5.97;4.78;;;3.90;79.00;;;;;;5012415;28;20132;-68
2021/01/23 08:58:05;;;;;;;7.25;4.15;;;3.90;78.90;;;;;;5012525;28;20040;-68
2021/01/23 09:00:31;;;;;;;5.60;4.50;;;3.90;78.80;;;;;;5011773;28;20425;-68
2021/01/23 09:03:00;;;;;;;7.60;6.03;;;3.90;78.80;;;;;;5014030;28;20109;-69
2021/01/23 09:05:28;;;;;;;7.30;5.40;;;3.90;78.90;;;;;;5011890;28;20085;-69
2021/01/23 09:07:54;;;;;;;7.57;6.45;;;3.90;78.90;;;;;;5010273;28;20528;-68
2021/01/23 09:10:20;;;;;;;8.32;6.18;;;4.00;78.80;;;;;;5012658;28;20037;-70
2021/01/23 09:12:48;;;;;;;7.82;5.63;;;4.00;78.80;;;;;;5015292;28;20030;-68
2021/01/23 09:15:14;;;;;;;10.05;6.10;;;4.00;78.80;;;;;;5016898;28;20263;-68
2021/01/23 09:17:40;;;;;;;8.90;6.60;;;4.00;78.80;;;;;;5009009;28;20033;-70
2021/01/23 09:20:08;;;;;;;7.20;5.68;;;4.00;79.00;;;;;;4988891;28;20041;-69
2021/01/23 09:22:33;;;;;;;6.70;5.22;;;4.00;79.00;;;;;;4991092;28;20038;-68
2021/01/23 09:24:59;;;;;;;6.13;4.80;;;4.00;79.10;;;;;;4999186;28;20367;-69
2021/01/23 09:27:26;;;;;;;8.05;5.88;;;4.00;79.00;;;;;;4989899;28;20034;-67
2021/01/23 09:29:52;;;;;;;5.80;4.63;;;4.10;79.20;;;;;;4984900;28;20512;-69
2021/01/23 09:32:18;;;;;;;6.03;4.68;;;3.90;79.00;;;;;;4987014;28;20056;-68
2021/01/23 09:34:44;;;;;;;5.75;4.63;;;4.00;79.20;;;;;;4990286;28;20045;-69
2021/01/23 09:37:09;;;;;;;9.15;6.57;;;4.10;79.20;;;;;;4984003;28;20038;-68
2021/01/23 09:39:35;;;;;;;6.57;4.82;;;4.10;79.00;;;;;;4987426;28;20556;-69
2021/01/23 09:42:01;;;;;;;7.20;5.05;;;4.10;78.90;;;;;;4988068;28;20076;-70
2021/01/23 09:44:27;;;;;;;6.28;5.03;;;4.10;78.90;;;;;;5018889;28;20129;-69
2021/01/23 09:46:54;;;;;;;6.97;5.25;;;4.10;78.90;;;;;;4984467;28;20088;-68
2021/01/23 09:49:19;;;;;;;9.60;5.07;;;4.10;79.00;;;;;;4987395;28;20034;-69
2021/01/23 09:51:45;;;;;;;7.95;5.93;;;4.10;78.90;;;;;;4986859;28;20069;-69
2021/01/23 09:54:11;;;;;;;6.47;5.45;;;4.10;79.20;;;;;;4985342;28;20926;-69
2021/01/23 09:56:36;;;;;;;6.88;5.70;;;4.10;79.30;;;;;;4984696;28;20041;-70
2021/01/23 09:59:02;;;;;;;7.57;5.70;;;4.10;79.40;;;;;;4985635;28;20066;-70
2021/01/23 10:01:28;;;;;;;5.85;4.80;;;4.20;79.40;;;;;;4988490;28;20056;-69
2021/01/23 10:03:53;;;;;;;7.88;5.38;;;4.20;79.30;;;;;;4985662;28;20631;-68
2021/01/23 10:06:19;;;;;;;10.20;7.43;;;4.30;79.30;;;;;;4987762;28;20042;-70
2021/01/23 10:08:44;;;;;;;7.00;5.70;;;4.30;79.30;;;;;;5097414;22;20061;-63
2021/01/23 10:13:38;;;;;;;7.90;5.80;;;4.30;79.30;;;;;;4990502;28;20061;-62
2021/01/23 10:16:04;;;;;;;7.10;5.72;;;4.40;80.30;;;;;;4992553;28;20038;-64
2021/01/23 10:18:34;;;;;;;8.82;5.60;;;4.40;79.50;;;;;;4989506;28;20535;-62
2021/01/23 10:21:00;;;;;;;5.95;5.25;;;4.40;79.30;;;;;;4988447;28;20091;-63
2021/01/23 10:23:25;;;;;;;7.93;5.07;;;4.40;79.30;;;;;;4991862;28;20042;-62
2021/01/23 10:25:51;;;;;;;5.60;4.80;;;4.50;79.70;;;;;;4975890;28;20057;-65
2021/01/23 10:28:17;;;;;;;5.70;4.68;;;4.50;79.30;;;;;;4988935;28;20042;-65
2021/01/23 10:30:42;;;;;;;5.55;4.28;;;4.50;79.30;;;;;;4987856;28;20048;-64
2021/01/23 10:33:08;;;;;;;6.82;5.20;;;4.60;79.40;;;;;;4975657;28;20038;-64
2021/01/23 10:35:33;;;;;;;6.97;5.63;;;4.70;79.50;;;;;;4988788;28;20065;-66
2021/01/23 10:37:59;;;;;;;8.90;5.60;;;4.60;79.30;;;;;;4987673;28;20042;-62
2021/01/23 10:40:25;;;;;;;5.30;4.80;;;4.60;79.20;;;;;;4987598;28;20065;-65
2021/01/23 10:42:50;;;;;;;7.80;4.97;;;4.70;79.00;;;;;;4997318;28;20026;-64
2021/01/23 10:45:16;;;;;;;6.95;5.38;;;4.70;79.00;;;;;;4978604;28;21331;-66
2021/01/23 10:47:42;;;;;;;6.50;5.20;;;4.70;79.00;;;;;;4996319;28;20030;-61
2021/01/23 10:50:08;;;;;;;5.93;4.50;;;4.80;79.00;;;;;;4996479;28;20069;-62
2021/01/23 10:52:34;;;;;;;6.18;5.28;;;4.80;78.90;;;;;;4995739;28;20644;-64
2021/01/23 10:55:00;;;;;;;7.07;5.15;;;4.80;78.80;;;;;;4999028;28;20030;-63
2021/01/23 10:57:25;;;;;;;6.13;4.93;;;4.80;78.60;;;;;;4995287;28;20044;-62
2021/01/23 10:59:51;;;;;;;5.93;5.03;;;4.80;78.60;;;;;;4996020;28;20276;-63
2021/01/23 11:02:16;;;;;;;5.47;4.55;;;4.70;78.60;;;;;;4981076;28;20034;-65
2021/01/23 11:04:42;;;;;;;6.15;5.43;;;4.70;78.60;;;;;;4996782;28;20065;-63
2021/01/23 11:07:08;;;;;;;6.65;4.97;;;4.70;78.80;;;;;;4999194;28;20108;-65
2021/01/23 11:09:33;;;;;;;7.70;5.18;;;4.70;78.90;;;;;;4998636;28;20081;-63
2021/01/23 11:11:59;;;;;;;5.60;5.00;;;4.80;79.00;;;;;;4998589;28;20038;-64
2021/01/23 11:14:24;;;;;;;7.47;4.60;;;4.80;79.00;;;;;;4998104;28;20777;-63
2021/01/23 11:16:50;;;;;;;5.95;4.93;;;4.80;79.00;;;;;;4999161;28;20038;-63
2021/01/23 11:19:16;;;;;;;5.13;4.63;;;4.80;79.10;;;;;;4998637;28;20409;-63
2021/01/23 11:21:43;;;;;;;5.20;4.70;;;4.80;79.00;;;;;;4998761;28;20117;-63
2021/01/23 11:24:09;;;;;;;6.95;4.70;;;4.80;78.90;;;;;;4998975;28;20420;-64
2021/01/23 11:26:34;;;;;;;5.30;4.57;;;4.80;78.70;;;;;;4998784;28;20510;-64
2021/01/23 11:29:00;;;;;;;6.22;5.57;;;4.80;78.60;;;;;;4981202;28;20111;-65
2021/01/23 11:31:26;;;;;;;6.20;4.57;;;4.80;78.60;;;;;;4997870;28;20045;-63
2021/01/23 11:33:52;;;;;;;5.70;4.32;;;4.80;78.60;;;;;;4997979;28;20037;-64
2021/01/23 11:36:19;;;;;;;5.55;4.82;;;4.80;78.50;;;;;;4999388;28;20142;-63
2021/01/23 11:38:44;;;;;;;11.57;6.88;;;4.80;78.60;;;;;;4997790;28;20458;-63
2021/01/23 11:41:10;;;;;;;8.98;6.40;;;4.80;78.70;;;;;;4999091;28;20164;-63
2021/01/23 11:43:36;;;;;;;6.97;4.82;;;4.90;78.80;;;;;;4980059;28;20034;-63
2021/01/23 11:46:03;;;;;;;7.10;5.18;;;4.90;78.80;;;;;;4996103;28;20514;-63
2021/01/23 11:48:28;;;;;;;10.48;6.20;;;4.90;78.60;;;;;;4998053;28;20045;-63
2021/01/23 11:50:54;;;;;;;7.50;5.22;;;4.90;78.70;;;;;;4995054;28;20049;-60
2021/01/23 11:53:20;;;;;;;6.07;5.47;;;4.90;78.60;;;;;;4994743;28;20454;-63
2021/01/23 11:55:46;;;;;;;5.18;4.57;;;4.90;78.50;;;;;;4996094;28;20116;-63
2021/01/23 11:58:12;;;;;;;5.53;4.38;;;4.90;78.40;;;;;;4993846;28;20053;-65
2021/01/23 12:00:37;;;;;;;5.30;4.80;;;4.90;78.50;;;;;;4979102;28;20033;-63
2021/01/23 12:03:04;;;;;;;4.70;4.30;;;4.90;78.60;;;;;;4980686;28;20038;-63
2021/01/23 12:05:31;;;;;;;8.40;6.72;;;4.90;78.70;;;;;;4996265;28;20030;-65
2021/01/23 12:07:57;;;;;;;12.35;8.52;;;4.90;78.70;;;;;;4995544;28;20062;-63
2021/01/23 12:10:23;;;;;;;8.10;5.25;;;4.90;78.70;;;;;;4994121;28;20038;-64
2021/01/23 12:12:48;;;;;;;5.68;5.10;;;4.90;78.50;;;;;;4981611;28;20555;-63
2021/01/23 12:15:16;;;;;;;6.28;4.78;;;4.90;79.20;;;;;;4978454;28;20030;-64
2021/01/23 12:17:43;;;;;;;4.90;4.50;;;4.90;78.30;;;;;;4992952;28;20084;-65
2021/01/23 12:20:10;;;;;;;4.75;4.30;;;4.90;78.30;;;;;;4996672;28;20437;-65
2021/01/23 12:22:37;;;;;;;5.72;4.45;;;4.90;78.30;;;;;;4996275;28;20030;-64
2021/01/23 12:25:04;;;;;;;5.28;4.70;;;4.90;78.30;;;;;;4996613;28;20030;-63
2021/01/23 12:27:30;;;;;;;5.32;4.53;;;4.90;78.20;;;;;;4996411;28;20042;-63
2021/01/23 12:29:56;;;;;;;5.55;4.60;;;4.90;78.20;;;;;;4995699;28;20387;-65
2021/01/23 12:32:21;;;;;;;5.30;4.53;;;4.90;78.30;;;;;;4981660;28;20077;-64
2021/01/23 12:34:47;;;;;;;4.97;4.43;;;4.90;78.30;;;;;;4997580;28;20121;-63
2021/01/23 12:37:13;;;;;;;5.28;4.28;;;4.90;78.30;;;;;;4994462;28;20046;-65
2021/01/23 12:39:39;;;;;;;5.88;4.90;;;4.90;78.30;;;;;;4997018;28;20038;-64
2021/01/23 12:42:06;;;;;;;6.13;4.93;;;4.90;78.40;;;;;;4986276;28;20037;-65
2021/01/23 12:44:32;;;;;;;5.60;4.97;;;4.90;78.60;;;;;;5000373;28;20038;-64
2021/01/23 12:46:58;;;;;;;7.63;5.38;;;4.90;78.60;;;;;;4984023;28;20039;-64
2021/01/23 12:49:23;;;;;;;5.18;4.28;;;5.00;78.70;;;;;;4981819;28;20042;-64
2021/01/23 12:51:50;;;;;;;8.77;5.85;;;5.00;78.60;;;;;;4980474;28;20049;-67
2021/01/23 12:54:15;;;;;;;8.20;5.13;;;5.00;78.40;;;;;;5001618;28;20089;-64
2021/01/23 12:56:42;;;;;;;7.05;4.78;;;5.10;78.30;;;;;;4983649;28;20401;-65
2021/01/23 12:59:08;;;;;;;6.13;4.55;;;5.10;78.30;;;;;;4983236;28;20465;-64
2021/01/23 13:01:37;;;;;;;6.82;4.63;;;5.10;78.30;;;;;;5000884;28;20041;-63
2021/01/23 13:04:03;;;;;;;4.95;4.45;;;5.20;78.30;;;;;;5003717;28;20038;-64